首页
METAR-TAF:

METAR-TAF

机场 :

New Richmond Regional Airport

New Richmond, 威斯康辛州, 美国

纬度: 45-08-54N, 经度: 092-32-17W, 海拔: 304米

当前天气观测

该预报发布于19分钟前的14:55 UTC
风速7节,风向西转西北
温度 18°C
湿度 77%
气压 1011 hPa
能見度: 16.1公里
天空无云

METAR: KRNH 221455Z AUTO 29007KT 10SM CLR 18/14 A2985 RMK AO2 T01750135

时间: 10:14 (15:14 UTC)

预报

该预报发布于3小时和54分钟前的11:20 UTC
预报有效从22日的 12点(UTC)到 23日的 12点(UTC)
风速6节,风向西转西北
能見度: 10公里
阴天层高于20000英尺
从 22日的 2100点(UTC)
风速7节,风向西转西北
能見度: 10公里
阴天层高于5000英尺
从 22日的 2300点(UTC)
风速5节,风向西
能見度: 10公里
阴天层高于5000英尺
附近有阵雨
从 23日的 0500点(UTC)
风速3节,风向西转西南
能見度: 10公里
多云层高于8000英尺

TAF: KRNH 221120Z 2212/2312 30006KT P6SM OVC200 FM222100 29007KT P6SM OVC050 FM222300 28005KT P6SM VCSH OVC050 FM230500 25003KT P6SM BKN080

超过4000个机场的气象观测和天气预报(METAR&TAF报告)。

可查询的气象台以黄色和红色小点在地图上表示。

将鼠标移到小点上方,可查看气象台名称。

然后点击查看天气观测和预报。

如需切换地图:点击带黑十字的绿色按钮放大地图;点击带横线的绿色按钮缩小地图;或者点击绿色箭头查看邻近地区的地图。


METAR-TAF: